• Join FlightAware (Why Join?)
  • Login
  • US Flag 
04:02AM EDT


 

Airport Tracker/Info


-or-


 

Live Flight TrackerFlight Track Log ✈ JUS327 ✈ 11-May-2013 ✈ KYIP - KLRD

Flight Track Log - Related Links

Times and Time Zones

All times are in EDT time to prevent confusion due to time zone crossing. See the JUS327 flight status page for this flight to view local times or setup timezone preferences in your user account.

Time Position Orientation Groundspeed Altitude Reporting Facility
EDT Latitude Longitude Course Direction KTS MPH feet Rate Location/Type
02:28PM 42.2258 -83.5500 220° Southwest 143 165 1,800  Level Cleveland Center
02:29PM 42.2067 -83.5714 220° Southwest 165 190 2,400 1,500 Climbing Cleveland Center
02:30PM 42.1725 -83.6008 213° Southwest 212 244 3,900 2,160 Climbing Cleveland Center
02:31PM 42.1150 -83.6483 212° Southwest 225 259 6,500 3,000 Climbing Cleveland Center
02:32PM 42.0436 -83.6700 193° South 242 278 9,900 2,340 Climbing Cleveland Center
02:33PM 41.9592 -83.7022 196° South 282 325 11,200 2,220 Climbing Cleveland Center
02:34PM 41.8644 -83.7339 194° South 328 377 14,400 2,880 Climbing Cleveland Center
02:35PM 41.7719 -83.7628 193° South 345 397 17,000 2,460 Climbing Cleveland Center
02:36PM 41.6753 -83.7942 194° South 350 403 19,400 2,160 Climbing Cleveland Center
02:37PM 41.6061 -83.8825 224° Southwest 344 396 21,400 1,920 Climbing Cleveland Center
02:38PM 41.5547 -83.9964 239° Southwest 349 402 23,300 1,740 Climbing Cleveland Center
02:39PM 41.5053 -84.1158 241° Southwest 361 415 24,900 1,740 Climbing Cleveland Center
02:40PM 41.4514 -84.2347 239° Southwest 368 423 26,800 1,560 Climbing Cleveland Center
02:42PM 41.3339 -84.4769 237° Southwest 379 436 29,900 1,500 Climbing Chicago Center
02:43PM 41.2775 -84.5939 237° Southwest 376 433 31,600 1,680 Climbing Chicago Center
02:44PM 41.2081 -84.7303 236° Southwest 371 427 33,400 1,140 Climbing Chicago Center
02:45PM 41.1406 -84.8331 229° Southwest 372 428 34,000 240 Climbing Chicago Center
02:46PM 41.0619 -84.9236 221° Southwest 373 429 34,000  Level Chicago Center
02:47PM 40.9872 -85.0194 224° Southwest 372 428 34,000  Level Chicago Center
02:48PM 40.9169 -85.1253 229° Southwest 379 436 34,000  Level Chicago Center
02:49PM 40.8467 -85.2278 228° Southwest 378 435 34,000  Level Chicago Center
02:50PM 40.7728 -85.3283 226° Southwest 380 437 34,000  Level Chicago Center
02:51PM 40.6975 -85.4264 225° Southwest 380 437 34,000  Level Chicago Center
02:52PM 40.6211 -85.5294 226° Southwest 384 442 34,000  Level Chicago Center
02:53PM 40.5311 -85.6486 225° Southwest 384 442 34,000  Level Chicago Center
02:54PM 40.4567 -85.7503 226° Southwest 387 445 34,000  Level Chicago Center
02:55PM 40.3825 -85.8500 226° Southwest 385 443 34,000  Level Chicago Center
02:56PM 40.3081 -85.9497 226° Southwest 385 443 34,000  Level Chicago Center
02:57PM 40.2331 -86.0481 225° Southwest 384 442 34,000  Level Chicago Center
02:58PM 40.1583 -86.1475 226° Southwest 385 443 34,000  Level Chicago Center
02:59PM 40.0681 -86.2656 225° Southwest 385 443 34,000  Level Chicago Center
03:00PM 39.9936 -86.3636 225° Southwest 385 443 34,000  Level Chicago Center
03:01PM 39.9189 -86.4611 225° Southwest 386 444 34,000  Level Indianapolis Center
03:02PM 39.8439 -86.5583 225° Southwest 388 447 34,000  Level Indianapolis Center
03:03PM 39.7528 -86.6769 225° Southwest 391 450 34,000  Level Indianapolis Center
03:04PM 39.6769 -86.7764 225° Southwest 391 450 34,000  Level Indianapolis Center
03:05PM 39.6000 -86.8756 225° Southwest 392 451 34,000  Level Indianapolis Center
03:07PM 39.5222 -86.9739 224° Southwest 394 453 34,000  Level Indianapolis Center
03:08PM 39.4450 -87.0731 225° Southwest 393 452 34,000  Level Indianapolis Center
03:09PM 39.3661 -87.1725 224° Southwest 396 456 34,000  Level Indianapolis Center
03:10PM 39.2886 -87.2714 225° Southwest 395 455 34,000  Level Indianapolis Center
03:11PM 39.1936 -87.3917 224° Southwest 399 459 34,000  Level Indianapolis Center
03:12PM 39.1125 -87.4928 224° Southwest 400 460 34,000  Level Indianapolis Center
03:13PM 39.0311 -87.5936 224° Southwest 405 466 34,000  Level Indianapolis Center
03:14PM 38.9517 -87.6933 224° Southwest 402 463 34,000  Level Indianapolis Center
03:15PM 38.8708 -87.7956 225° Southwest 406 467 34,000  Level Indianapolis Center
03:16PM 38.7914 -87.8958 225° Southwest 403 464 34,000  Level Indianapolis Center
03:16PM 38.7589 -87.9353 223° Southwest 403 464 34,000  Level Kansas City Center
03:17PM 38.6633 -88.0553 224° Southwest 402 463 34,000  Level Kansas City Center
03:18PM 38.5833 -88.1536 224° Southwest 400 460 34,000  Level Kansas City Center
03:19PM 38.5019 -88.2511 223° Southwest 400 460 34,000  Level Kansas City Center
03:20PM 38.4200 -88.3494 223° Southwest 402 463 34,000  Level Kansas City Center
03:21PM 38.3389 -88.4489 224° Southwest 403 464 34,000  Level Kansas City Center
03:22PM 38.2586 -88.5478 224° Southwest 403 464 34,000  Level Kansas City Center
03:23PM 38.1767 -88.6472 224° Southwest 404 465 34,000  Level Kansas City Center
03:24PM 38.0947 -88.7456 223° Southwest 405 466 34,000  Level Kansas City Center
03:25PM 38.0103 -88.8456 223° Southwest 409 471 34,000  Level Kansas City Center
03:26PM 37.9100 -88.9661 224° Southwest 412 474 34,000  Level Kansas City Center
03:27PM 37.8281 -89.0658 224° Southwest 412 474 34,000  Level Kansas City Center
03:29PM 37.7525 -89.1553 223° Southwest 407 468 34,000  Level Kansas City Center
03:30PM 37.6692 -89.2544 223° Southwest 410 472 34,000  Level Kansas City Center
03:31PM 37.5631 -89.3700 221° Southwest 418 481 34,000  Level Kansas City Center
03:32PM 37.4775 -89.4650 221° Southwest 414 476 34,000  Level Kansas City Center
03:33PM 37.3964 -89.5686 225° Southwest 413 475 34,000  Level Kansas City Center
03:33PM 37.3506 -89.6342 229° Southwest 419 482 34,000  Level Memphis Center
03:34PM 37.2700 -89.7339 225° Southwest 419 482 34,000  Level Memphis Center
03:35PM 37.1828 -89.8311 222° Southwest 419 482 34,000  Level Memphis Center
03:36PM 37.0978 -89.9303 223° Southwest 419 482 34,000  Level Memphis Center
03:37PM 37.0169 -90.0269 224° Southwest 419 482 34,000  Level Memphis Center
03:38PM 36.9339 -90.1233 223° Southwest 419 482 34,000  Level Memphis Center
03:39PM 36.8506 -90.2169 222° Southwest 419 482 34,000  Level Memphis Center
03:40PM 36.7714 -90.3103 223° Southwest 412 474 34,000  Level Memphis Center
03:41PM 36.6881 -90.4036 222° Southwest 407 468 34,000  Level Memphis Center
03:42PM 36.6047 -90.4964 222° Southwest 407 468 34,000  Level Memphis Center
03:43PM 36.5253 -90.5894 223° Southwest 407 468 34,000  Level Memphis Center
03:44PM 36.4439 -90.6819 222° Southwest 401 461 34,000  Level Memphis Center
03:45PM 36.3644 -90.7692 221° Southwest 396 456 34,000  Level Memphis Center
03:46PM 36.2847 -90.8589 222° Southwest 396 456 34,000  Level Memphis Center
03:47PM 36.2072 -90.9486 223° Southwest 396 456 34,000  Level Memphis Center
03:48PM 36.1317 -91.0381 224° Southwest 391 450 34,000  Level Memphis Center
03:49PM 36.0519 -91.1219 220° Southwest 391 450 34,000  Level Memphis Center
03:50PM 35.9764 -91.2033 221° Southwest 377 434 34,000  Level Memphis Center
03:51PM 35.8986 -91.2847 220° Southwest 370 426 34,000  Level Memphis Center
03:52PM 35.8250 -91.3708 223° Southwest 365 420 34,000  Level Memphis Center
03:53PM 35.7431 -91.4619 222° Southwest 365 420 34,000  Level Memphis Center
03:54PM 35.6714 -91.5428 223° Southwest 365 420 34,000  Level Memphis Center
03:55PM 35.5975 -91.6261 223° Southwest 371 427 34,000  Level Memphis Center
03:56PM 35.5194 -91.7089 221° Southwest 371 427 34,000  Level Memphis Center
03:57PM 35.4478 -91.7894 222° Southwest 371 427 34,000  Level Memphis Center
03:58PM 35.3736 -91.8722 222° Southwest 371 427 34,000  Level Memphis Center
03:59PM 35.2975 -91.9522 221° Southwest 371 427 34,000  Level Memphis Center
04:00PM 35.2214 -92.0319 221° Southwest 366 421 34,000  Level Memphis Center
04:01PM 35.1475 -92.1119 222° Southwest 366 421 34,000  Level Memphis Center
04:02PM 35.0775 -92.1892 222° Southwest 366 421 34,000  Level Memphis Center
04:03PM 35.0031 -92.2711 222° Southwest 361 415 34,000  Level Memphis Center
04:04PM 34.9289 -92.3506 221° Southwest 361 415 34,000  Level Memphis Center
04:05PM 34.8567 -92.4247 220° Southwest 361 415 34,000  Level Memphis Center
04:06PM 34.7972 -92.4889 222° Southwest 361 415 34,000  Level Memphis Center
04:07PM 34.7186 -92.5756 222° Southwest 355 409 34,000  Level Memphis Center
04:08PM 34.6464 -92.6519 221° Southwest 355 409 34,000  Level Memphis Center
04:09PM 34.5719 -92.7281 220° Southwest 350 403 34,000  Level Memphis Center
04:12PM 34.3972 -92.9136 221° Southwest 352 405 34,000  Level Fort Worth Center
04:13PM 34.3250 -92.9953 223° Southwest 352 405 34,000  Level Fort Worth Center
04:14PM 34.2650 -93.0636 223° Southwest 347 399 34,000  Level Fort Worth Center
04:15PM 34.1881 -93.1378 219° Southwest 353 406 34,000  Level Fort Worth Center
04:16PM 34.1136 -93.2167 221° Southwest 353 406 34,000  Level Fort Worth Center
04:17PM 34.0389 -93.2931 220° Southwest 353 406 34,000  Level Fort Worth Center
04:18PM 33.9664 -93.3692 221° Southwest 348 400 34,000  Level Fort Worth Center
04:19PM 33.8917 -93.4478 221° Southwest 348 400 34,000  Level Fort Worth Center
04:20PM 33.8189 -93.5233 221° Southwest 348 400 34,000  Level Fort Worth Center
04:21PM 33.7461 -93.5992 221° Southwest 348 400 34,000  Level Fort Worth Center
04:22PM 33.6711 -93.6722 219° Southwest 348 400 34,000  Level Fort Worth Center
04:23PM 33.6003 -93.7475 222° Southwest 348 400 34,000  Level Fort Worth Center
04:24PM 33.5272 -93.8228 221° Southwest 348 400 34,000  Level Fort Worth Center
04:25PM 33.4461 -93.9083 221° Southwest 348 400 34,000  Level Fort Worth Center
04:26PM 33.3772 -93.9808 221° Southwest 359 413 34,000  Level Fort Worth Center
04:27PM 33.2939 -94.0658 220° Southwest 359 413 34,000  Level Fort Worth Center
04:28PM 33.2228 -94.1356 219° Southwest 359 413 34,000  Level Fort Worth Center
04:29PM 33.1475 -94.2081 219° Southwest 353 406 34,000  Level Fort Worth Center
04:30PM 33.0742 -94.2825 220° Southwest 348 400 34,000  Level Fort Worth Center
04:31PM 33.0008 -94.3569 220° Southwest 348 400 34,000  Level Fort Worth Center
04:32PM 32.9294 -94.4286 220° Southwest 348 400 34,000  Level Fort Worth Center
04:33PM 32.8497 -94.4956 215° Southwest 353 406 34,000  Level Fort Worth Center
04:34PM 32.7742 -94.5697 220° Southwest 353 406 34,000  Level Fort Worth Center
04:35PM 32.7028 -94.6458 222° Southwest 353 406 34,000  Level Fort Worth Center
04:36PM 32.6314 -94.7244 223° Southwest 353 406 34,000  Level Fort Worth Center
04:37PM 32.5578 -94.7958 219° Southwest 353 406 34,000  Level Fort Worth Center
04:38PM 32.4842 -94.8719 221° Southwest 353 406 34,000  Level Fort Worth Center
04:39PM 32.4064 -94.9428 218° Southwest 353 406 34,000  Level Fort Worth Center
04:40PM 32.3431 -95.0233 227° Southwest 342 394 34,000  Level Fort Worth Center
04:41PM 32.2672 -95.0917 217° Southwest 342 394 34,000  Level Fort Worth Center
04:42PM 32.1933 -95.1697 222° Southwest 353 406 34,000  Level Fort Worth Center
04:43PM 32.1172 -95.2378 217° Southwest 353 406 34,000  Level Fort Worth Center
04:44PM 32.0414 -95.3156 221° Southwest 353 406 34,000  Level Fort Worth Center
04:45PM 31.9653 -95.3906 220° Southwest 353 406 34,000  Level Fort Worth Center
04:47PM 31.8228 -95.5308 220° Southwest 345 397 34,000  Level Houston Center
04:48PM 31.7478 -95.6031 219° Southwest 347 399 34,000  Level Houston Center
04:49PM 31.6586 -95.6875 219° Southwest 345 397 34,000  Level Houston Center
04:50PM 31.5869 -95.7586 220° Southwest 340 391 34,000  Level Houston Center
04:51PM 31.5131 -95.8303 220° Southwest 343 395 34,000  Level Houston Center
04:52PM 31.4403 -95.8994 219° Southwest 340 391 34,000  Level Houston Center
04:53PM 31.3683 -95.9683 219° Southwest 337 388 34,000  Level Houston Center
04:54PM 31.2958 -96.0381 219° Southwest 337 388 34,000  Level Houston Center
04:55PM 31.2136 -96.1156 219° Southwest 338 389 34,000  Level Houston Center
04:56PM 31.1400 -96.1856 219° Southwest 336 387 34,000  Level Houston Center
04:57PM 31.0678 -96.2556 220° Southwest 335 386 34,000  Level Houston Center
04:58PM 30.9933 -96.3250 219° Southwest 337 388 34,000  Level Houston Center
04:59PM 30.9206 -96.3961 220° Southwest 336 387 34,000  Level Houston Center
05:00PM 30.8450 -96.4661 219° Southwest 341 392 34,000  Level Houston Center
05:01PM 30.7717 -96.5358 219° Southwest 337 388 34,000  Level Houston Center
05:02PM 30.6972 -96.6053 219° Southwest 339 390 34,000  Level Houston Center
05:03PM 30.6103 -96.6883 219° Southwest 341 392 34,000  Level Houston Center
05:04PM 30.5336 -96.7589 218° Southwest 347 399 34,000  Level Houston Center
05:05PM 30.4564 -96.8311 219° Southwest 350 403 34,000  Level Houston Center
05:06PM 30.3811 -96.9033 220° Southwest 347 399 34,000  Level Houston Center
05:07PM 30.3047 -96.9767 220° Southwest 351 404 34,000  Level Houston Center
05:08PM 30.2275 -97.0486 219° Southwest 351 404 34,000  Level Houston Center
05:09PM 30.1453 -97.1253 219° Southwest 353 406 34,000  Level Houston Center
05:10PM 30.0692 -97.1947 218° Southwest 351 404 34,000  Level Houston Center
05:11PM 29.9939 -97.2658 219° Southwest 351 404 34,000  Level Houston Center
05:12PM 29.9192 -97.3364 219° Southwest 351 404 34,000  Level Houston Center
05:13PM 29.8428 -97.4061 218° Southwest 352 405 34,000  Level Houston Center
05:14PM 29.7672 -97.4756 219° Southwest 350 403 34,000  Level Houston Center
05:15PM 29.6917 -97.5444 218° Southwest 348 400 34,000  Level Houston Center
05:16PM 29.5997 -97.6281 218° Southwest 352 405 34,000  Level Houston Center
05:17PM 29.5228 -97.6978 218° Southwest 352 405 34,000  Level Houston Center
05:19PM 29.4467 -97.7689 219° Southwest 354 407 34,000  Level Houston Center
05:20PM 29.3636 -97.8442 218° Southwest 354 407 34,000  Level Houston Center
05:21PM 29.2794 -97.9175 217° Southwest 353 406 34,000  Level Houston Center
05:22PM 29.2025 -97.9881 219° Southwest 353 406 34,000  Level Houston Center
05:23PM 29.1264 -98.0600 220° Southwest 354 407 34,000  Level Houston Center
05:24PM 29.0442 -98.1356 219° Southwest 352 405 34,000  Level Houston Center
05:25PM 28.9664 -98.2058 218° Southwest 354 407 34,000  Level Houston Center
05:26PM 28.8889 -98.2750 218° Southwest 354 407 34,000 -780 Level Houston Center
05:27PM 28.8031 -98.3519 218° Southwest 364 419 32,500 -1,620 Descending Houston Center
05:28PM 28.7222 -98.4247 218° Southwest 370 426 30,800 -1,620 Descending Houston Center
05:29PM 28.6511 -98.4842 216° Southwest 371 427 29,300 -1,800 Descending Houston Center
05:30PM 28.5550 -98.5706 218° Southwest 367 422 27,200 -1,860 Descending Houston Center
05:31PM 28.4758 -98.6450 220° Southwest 369 425 25,500 -1,740 Descending Houston Center
05:32PM 28.3942 -98.7172 218° Southwest 372 428 23,700 -1,860 Descending Houston Center
05:33PM 28.3158 -98.7875 218° Southwest 365 420 21,700 -1,980 Descending Houston Center
05:34PM 28.2403 -98.8567 219° Southwest 354 407 19,700 -1,920 Descending Houston Center
05:35PM 28.1628 -98.9214 216° Southwest 348 400 17,800 -1,800 Descending Houston Center
05:36PM 28.0883 -98.9853 217° Southwest 343 395 16,000 -2,040 Descending Houston Center
05:37PM 28.0003 -99.0672 219° Southwest 341 392 13,700 -2,100 Descending Houston Center
05:38PM 27.9264 -99.1364 220° Southwest 345 397 11,700 -1,800 Descending Houston Center
05:39PM 27.8528 -99.1986 217° Southwest 341 392 10,000 -1,680 Descending Houston Center
05:40PM 27.7842 -99.2400 208° Southwest 312 359 8,300 -1,860 Descending Houston Center
05:41PM 27.7069 -99.2619 194° South 295 339 6,200 -1,920 Descending Houston Center
05:42PM 27.6306 -99.2808 192° South 288 331 4,400 -1,500 Descending Houston Center
05:43PM 27.5458 -99.3017 192° South 274 315 3,200 -720 Descending Houston Center
05:44PM 27.4836 -99.3164 192° South 250 288 3,000 -60 Descending Houston Center
05:45PM 27.4344 -99.3536 214° Southwest 238 274 3,100 -120 Climbing Houston Center
05:46PM 27.4425 -99.4147 278° West 216 249 2,800 -720 Descending Houston Center
05:47PM 27.4819 -99.4592 315° West 206 237 1,700 -960 Descending Houston Center
05:48PM 27.5183 -99.4633 354° North 160 184 900 -840 Descending Houston Center